createdAt,value
2018-09-14T00:01:34.128Z,5.63
2018-09-14T00:04:02.919Z,5.80
2018-09-14T00:06:31.217Z,5.37
2018-09-14T00:08:59.427Z,5.80
2018-09-14T00:11:27.564Z,5.93
2018-09-14T00:13:55.816Z,5.83
2018-09-14T00:16:23.959Z,5.75
2018-09-14T00:18:52.411Z,5.78
2018-09-14T00:21:20.611Z,6.47
2018-09-14T00:23:48.952Z,6.30
2018-09-14T00:26:17.105Z,5.80
2018-09-14T00:28:45.243Z,6.00
2018-09-14T00:31:13.424Z,6.58
2018-09-14T00:33:41.560Z,6.87
2018-09-14T00:36:09.697Z,6.47
2018-09-14T00:38:37.860Z,7.47
2018-09-14T00:41:06.072Z,6.90
2018-09-14T00:43:34.675Z,7.57
2018-09-14T00:46:02.834Z,7.13
2018-09-14T00:48:31.014Z,7.58
2018-09-14T00:50:59.212Z,6.50
2018-09-14T00:53:27.400Z,6.50
2018-09-14T00:55:55.552Z,5.70
2018-09-14T00:58:24.075Z,6.45
2018-09-14T01:00:52.247Z,5.80
2018-09-14T01:03:21.059Z,6.27
2018-09-14T01:05:49.352Z,6.57
2018-09-14T01:08:17.680Z,6.57
2018-09-14T01:10:45.823Z,6.87
2018-09-14T01:13:13.948Z,6.27
2018-09-14T01:15:42.124Z,6.07
2018-09-14T01:18:10.266Z,5.62
2018-09-14T01:20:38.440Z,5.30
2018-09-14T01:23:06.602Z,5.20
2018-09-14T01:25:34.737Z,5.17
2018-09-14T01:28:02.955Z,5.35
2018-09-14T01:30:31.661Z,5.73
2018-09-14T01:32:59.807Z,6.27
2018-09-14T01:35:33.731Z,6.13
2018-09-14T01:38:02.173Z,6.27
2018-09-14T01:40:30.436Z,5.90
2018-09-14T01:42:58.581Z,6.30
2018-09-14T01:45:27.471Z,6.50
2018-09-14T01:47:55.856Z,6.53
2018-09-14T01:50:24.138Z,7.40
2018-09-14T01:52:52.600Z,6.55
2018-09-14T01:55:20.757Z,6.33
2018-09-14T01:57:49.716Z,6.77
2018-09-14T02:00:17.866Z,6.70
2018-09-14T02:02:46.312Z,8.13
2018-09-14T02:05:14.484Z,8.03
2018-09-14T02:07:42.796Z,7.75
2018-09-14T02:10:15.268Z,7.90
2018-09-14T02:12:43.476Z,8.80
2018-09-14T02:15:11.625Z,8.20
2018-09-14T02:17:39.768Z,8.23
2018-09-14T02:20:08.013Z,8.90
2018-09-14T02:22:36.179Z,10.28
2018-09-14T02:25:04.505Z,9.00
2018-09-14T02:27:32.660Z,9.85
2018-09-14T02:32:33.498Z,9.20
2018-09-14T02:35:01.631Z,7.33
2018-09-14T02:37:29.804Z,7.37
2018-09-14T02:39:57.973Z,7.47
2018-09-14T02:42:26.351Z,7.97
2018-09-14T02:44:54.472Z,7.57
2018-09-14T02:47:22.743Z,7.43
2018-09-14T02:49:50.901Z,7.00
2018-09-14T02:52:19.741Z,6.63
2018-09-14T02:54:47.976Z,6.33
2018-09-14T02:57:16.837Z,6.33
2018-09-14T02:59:45.592Z,6.90
2018-09-14T03:02:14.080Z,5.90
2018-09-14T03:04:42.344Z,6.30
2018-09-14T03:07:11.508Z,6.93
2018-09-14T03:09:39.679Z,5.83
2018-09-14T03:12:07.844Z,5.47
2018-09-14T03:14:35.984Z,5.70
2018-09-14T03:17:04.151Z,6.20
2018-09-14T03:19:32.369Z,5.53
2018-09-14T03:22:01.334Z,5.73
2018-09-14T03:24:29.528Z,5.80
2018-09-14T03:26:57.720Z,5.20
2018-09-14T03:29:25.873Z,5.70
2018-09-14T03:31:54.001Z,5.20
2018-09-14T03:34:22.172Z,5.67
2018-09-14T03:36:50.468Z,5.07
2018-09-14T03:39:19.232Z,4.60
2018-09-14T03:41:47.487Z,5.03
2018-09-14T03:44:15.696Z,4.70
2018-09-14T03:46:43.865Z,4.80
2018-09-14T03:49:12.000Z,5.17
2018-09-14T03:51:40.148Z,4.80
2018-09-14T03:54:08.455Z,8.40
2018-09-14T03:56:36.734Z,9.57
2018-09-14T03:59:05.023Z,5.03
2018-09-14T04:01:33.199Z,4.97
2018-09-14T04:04:01.332Z,5.50
2018-09-14T04:06:30.092Z,4.73
2018-09-14T04:08:58.242Z,4.73
2018-09-14T04:11:26.395Z,4.90
2018-09-14T04:13:54.551Z,4.90
2018-09-14T04:16:22.741Z,4.90
2018-09-14T04:18:59.259Z,4.87
2018-09-14T04:21:27.668Z,5.47
2018-09-14T04:23:55.798Z,4.40
2018-09-14T04:26:24.144Z,12.67
2018-09-14T04:28:52.935Z,10.50
2018-09-14T04:31:21.180Z,4.90
2018-09-14T04:33:49.729Z,4.67
2018-09-14T04:36:18.434Z,4.73
2018-09-14T04:38:46.572Z,5.00
2018-09-14T04:41:14.796Z,4.67
2018-09-14T04:43:43.263Z,4.83
2018-09-14T04:46:12.000Z,6.60
2018-09-14T04:48:40.277Z,4.70
2018-09-14T04:51:08.462Z,4.57
2018-09-14T04:53:36.624Z,6.20
2018-09-14T04:56:05.008Z,5.97
2018-09-14T04:58:33.152Z,5.53
2018-09-14T05:01:01.371Z,5.10
2018-09-14T05:03:29.760Z,4.80
2018-09-14T05:05:58.064Z,4.50
2018-09-14T05:08:26.376Z,4.67
2018-09-14T05:10:54.524Z,4.70
2018-09-14T05:13:23.215Z,5.77
2018-09-14T05:15:51.370Z,4.97
2018-09-14T05:18:20.207Z,4.80
2018-09-14T05:20:48.403Z,4.77
2018-09-14T05:23:16.532Z,4.60
2018-09-14T05:25:44.839Z,4.13
2018-09-14T05:28:13.768Z,4.33
2018-09-14T05:30:42.048Z,4.57
2018-09-14T05:33:10.184Z,4.63
2018-09-14T05:35:38.396Z,4.87
2018-09-14T05:38:06.803Z,4.57
2018-09-14T05:40:34.987Z,4.47
2018-09-14T05:43:03.407Z,4.20
2018-09-14T05:45:31.623Z,4.20
2018-09-14T05:47:59.699Z,4.30
2018-09-14T05:50:27.884Z,4.70
2018-09-14T05:52:56.037Z,3.90
2018-09-14T05:55:24.172Z,4.33
2018-09-14T05:57:52.347Z,4.20
2018-09-14T06:00:21.963Z,4.17
2018-09-14T06:02:50.383Z,4.37
2018-09-14T06:05:18.604Z,4.30
2018-09-14T06:07:46.729Z,3.83
2018-09-14T06:10:14.968Z,4.27
2018-09-14T06:14:46.588Z,3.60
2018-09-14T06:17:14.767Z,4.07
2018-09-14T06:19:43.164Z,3.93
2018-09-14T06:22:11.428Z,3.60
2018-09-14T06:24:40.413Z,4.40
2018-09-14T06:27:08.864Z,3.87
2018-09-14T06:29:38.048Z,4.10
2018-09-14T06:32:06.729Z,3.97
2018-09-14T06:34:35.234Z,4.00
2018-09-14T06:37:03.884Z,3.97
2018-09-14T06:39:32.569Z,3.90
2018-09-14T06:42:00.973Z,4.03
2018-09-14T06:44:29.689Z,4.45
2018-09-14T06:46:58.313Z,4.05
2018-09-14T06:49:26.884Z,5.03
2018-09-14T06:51:55.344Z,4.70
2018-09-14T06:54:23.695Z,5.42
2018-09-14T06:56:52.088Z,5.55
2018-09-14T06:59:21.074Z,5.37
2018-09-14T07:01:49.474Z,6.53
2018-09-14T07:04:18.001Z,5.55
2018-09-14T07:06:46.405Z,5.97
2018-09-14T07:09:14.813Z,7.15
2018-09-14T07:11:43.288Z,6.20
2018-09-14T07:14:12.402Z,7.10
2018-09-14T07:16:41.064Z,7.80
2018-09-14T07:19:09.771Z,7.73
2018-09-14T07:21:38.542Z,7.87
2018-09-14T07:24:07.109Z,8.07
2018-09-14T07:26:35.533Z,9.23
2018-09-14T07:29:04.046Z,9.80
2018-09-14T07:31:32.611Z,9.97
2018-09-14T07:34:01.544Z,9.08
2018-09-14T07:36:30.067Z,11.28
2018-09-14T07:38:58.608Z,10.58
2018-09-14T07:41:27.199Z,11.25
2018-09-14T07:43:55.653Z,11.80
2018-09-14T07:46:24.172Z,12.43
2018-09-14T07:48:53.396Z,12.45
2018-09-14T07:51:21.812Z,11.33
2018-09-14T07:53:50.470Z,11.97
2018-09-14T07:56:19.168Z,12.40
2018-09-14T07:58:48.222Z,11.80
2018-09-14T08:01:16.711Z,12.05
2018-09-14T08:03:45.685Z,12.10
2018-09-14T08:06:13.854Z,12.30
2018-09-14T08:08:42.225Z,13.10
2018-09-14T08:11:10.876Z,12.20
2018-09-14T08:13:38.987Z,11.60
2018-09-14T08:16:07.412Z,10.38
2018-09-14T08:18:35.515Z,9.20
2018-09-14T08:21:03.746Z,9.73
2018-09-14T08:23:31.856Z,8.58
2018-09-14T08:25:59.959Z,9.30
2018-09-14T08:28:28.291Z,9.53
2018-09-14T08:30:56.435Z,10.32
2018-09-14T08:33:24.632Z,8.63
2018-09-14T08:35:53.137Z,9.45
2018-09-14T08:38:21.336Z,10.10
2018-09-14T08:40:49.453Z,9.53
2018-09-14T08:43:17.553Z,8.53
2018-09-14T08:45:45.739Z,8.40
2018-09-14T08:48:13.845Z,7.37
2018-09-14T08:50:42.256Z,7.72
2018-09-14T08:53:10.493Z,7.72
2018-09-14T08:55:38.655Z,7.50
2018-09-14T08:58:07.692Z,7.80
2018-09-14T09:00:36.064Z,8.10
2018-09-14T09:03:04.140Z,7.58
2018-09-14T09:05:32.357Z,7.17
2018-09-14T09:08:00.472Z,7.90
2018-09-14T09:10:28.830Z,7.00
2018-09-14T09:12:57.039Z,7.95
2018-09-14T09:15:25.174Z,7.62
2018-09-14T09:17:53.470Z,8.20
2018-09-14T09:20:21.502Z,6.60
2018-09-14T09:22:50.168Z,6.58
2018-09-14T09:25:18.860Z,7.20
2018-09-14T09:27:46.997Z,5.90
2018-09-14T09:30:15.125Z,6.37
2018-09-14T09:32:43.660Z,5.72
2018-09-14T09:35:11.780Z,6.42
2018-09-14T09:37:39.900Z,6.17
2018-09-14T09:40:08.338Z,6.12
2018-09-14T09:42:36.523Z,6.00
2018-09-14T09:45:05.316Z,6.15
2018-09-14T09:47:33.436Z,5.53
2018-09-14T09:50:01.827Z,5.25
2018-09-14T09:52:30.084Z,5.70
2018-09-14T09:54:58.268Z,5.70
2018-09-14T09:57:26.531Z,4.10
2018-09-14T09:59:54.683Z,5.15
2018-09-14T10:02:29.360Z,4.35
2018-09-14T10:05:03.003Z,4.42
2018-09-14T10:07:31.839Z,4.87
2018-09-14T10:09:59.940Z,4.85
2018-09-14T10:12:28.658Z,4.70
2018-09-14T10:14:56.955Z,4.20
2018-09-14T10:17:25.169Z,5.92
2018-09-14T10:19:53.344Z,5.25
2018-09-14T10:22:21.459Z,4.97
2018-09-14T10:24:50.460Z,5.55
2018-09-14T10:27:18.680Z,5.58
2018-09-14T10:29:46.887Z,5.72
2018-09-14T10:32:15.004Z,5.10
2018-09-14T10:34:43.128Z,5.42
2018-09-14T10:37:11.329Z,4.70
2018-09-14T10:39:39.482Z,6.30
2018-09-14T10:42:07.680Z,5.83
2018-09-14T10:44:36.000Z,5.80
2018-09-14T10:47:04.108Z,6.50
2018-09-14T10:49:32.328Z,5.60
2018-09-14T10:52:00.559Z,6.20
2018-09-14T10:54:29.000Z,6.03
2018-09-14T10:56:57.147Z,6.78
2018-09-14T10:59:25.248Z,6.15
2018-09-14T11:01:53.432Z,5.80
2018-09-14T11:04:21.808Z,4.80
2018-09-14T11:06:50.549Z,4.42
2018-09-14T11:09:19.471Z,5.50
2018-09-14T11:11:47.620Z,4.70
2018-09-14T11:14:15.880Z,4.50
2018-09-14T11:16:44.047Z,4.80
2018-09-14T11:19:12.191Z,3.80
2018-09-14T11:21:40.303Z,3.72
2018-09-14T11:24:08.503Z,3.77
2018-09-14T11:26:36.608Z,3.35
2018-09-14T11:29:05.516Z,3.10
2018-09-14T11:31:33.617Z,3.00
2018-09-14T11:34:02.201Z,3.40
2018-09-14T11:36:30.364Z,3.08
2018-09-14T11:38:58.477Z,3.37
2018-09-14T11:41:26.586Z,2.95
2018-09-14T11:43:54.708Z,3.37
2018-09-14T11:46:23.740Z,3.47
2018-09-14T11:48:52.228Z,2.98
2018-09-14T11:51:20.778Z,2.85
2018-09-14T11:53:49.592Z,3.50
2018-09-14T11:56:17.704Z,2.85
2018-09-14T11:58:45.853Z,2.92
2018-09-14T12:01:14.052Z,3.30
2018-09-14T12:03:42.178Z,2.85
2018-09-14T12:06:10.561Z,3.00
2018-09-14T12:08:38.672Z,4.00
2018-09-14T12:11:07.136Z,3.00
2018-09-14T12:13:35.337Z,2.90
2018-09-14T12:16:03.432Z,3.22
2018-09-14T12:18:31.599Z,3.37
2018-09-14T12:21:00.293Z,3.20
2018-09-14T12:23:29.304Z,3.00
2018-09-14T12:25:57.436Z,3.00
2018-09-14T12:28:25.557Z,2.60
2018-09-14T12:30:53.688Z,2.60
2018-09-14T12:33:21.878Z,2.58
2018-09-14T12:35:49.953Z,2.47
2018-09-14T12:38:18.131Z,2.55
2018-09-14T12:40:46.261Z,2.58
2018-09-14T12:43:15.008Z,2.30
2018-09-14T12:45:43.113Z,2.30
2018-09-14T12:48:11.388Z,2.00
2018-09-14T12:50:39.501Z,2.08
2018-09-14T12:53:09.193Z,1.95
2018-09-14T12:55:37.377Z,2.58
2018-09-14T12:58:05.625Z,2.60
2018-09-14T13:00:34.086Z,2.40
2018-09-14T13:03:02.243Z,2.27
2018-09-14T13:05:30.600Z,2.30
2018-09-14T13:07:58.795Z,2.22
2018-09-14T13:10:26.915Z,1.95
2018-09-14T13:12:55.079Z,2.10
2018-09-14T13:15:23.167Z,2.27
2018-09-14T13:17:51.953Z,2.17
2018-09-14T13:20:20.273Z,2.70
2018-09-14T13:22:48.412Z,1.72
2018-09-14T13:25:16.602Z,2.30
2018-09-14T13:27:44.948Z,2.30
2018-09-14T13:30:13.117Z,2.25
2018-09-14T13:32:43.304Z,2.15
2018-09-14T13:35:11.560Z,2.17
2018-09-14T13:37:39.715Z,1.70
2018-09-14T13:40:08.329Z,2.12
2018-09-14T13:42:36.500Z,2.17
2018-09-14T13:45:05.111Z,1.98
2018-09-14T13:47:33.553Z,2.15
2018-09-14T13:50:01.691Z,2.20
2018-09-14T13:52:30.111Z,1.90
2018-09-14T13:54:58.220Z,2.10
2018-09-14T13:57:26.341Z,2.25
2018-09-14T13:59:54.540Z,2.47
2018-09-14T14:02:22.808Z,2.02
2018-09-14T14:04:50.891Z,2.75
2018-09-14T14:07:19.026Z,2.10
2018-09-14T14:09:47.843Z,2.27
2018-09-14T14:12:15.984Z,2.20
2018-09-14T14:14:44.221Z,2.55
2018-09-14T14:17:12.408Z,1.77
2018-09-14T14:19:40.473Z,1.85
2018-09-14T14:22:08.588Z,2.40
2018-09-14T14:24:36.705Z,2.10
2018-09-14T14:27:04.852Z,1.90
2018-09-14T14:29:33.001Z,2.30
2018-09-14T14:32:02.088Z,2.30
2018-09-14T14:34:31.412Z,2.15
2018-09-14T14:36:59.514Z,1.87
2018-09-14T14:39:27.728Z,1.92
2018-09-14T14:41:56.794Z,2.25
2018-09-14T14:44:25.004Z,1.90
2018-09-14T14:46:53.785Z,2.02
2018-09-14T14:49:22.074Z,2.05
2018-09-14T14:51:50.208Z,2.20
2018-09-14T14:54:18.523Z,2.10
2018-09-14T14:56:46.637Z,1.82
2018-09-14T14:59:14.815Z,1.82
2018-09-14T15:01:42.980Z,2.10
2018-09-14T15:04:11.329Z,2.10
2018-09-14T15:06:42.487Z,2.60
2018-09-14T15:09:10.964Z,2.70
2018-09-14T15:11:39.832Z,2.10
2018-09-14T15:14:08.132Z,2.95
2018-09-14T15:16:36.220Z,2.33
2018-09-14T15:19:04.352Z,2.33
2018-09-14T15:21:33.025Z,2.55
2018-09-14T15:24:01.135Z,2.20
2018-09-14T15:26:29.480Z,2.02
2018-09-14T15:28:57.711Z,2.42
2018-09-14T15:31:26.140Z,2.77
2018-09-14T15:33:54.620Z,4.40
2018-09-14T15:36:22.768Z,5.15
2018-09-14T15:38:51.154Z,2.42
2018-09-14T15:41:19.309Z,3.40
2018-09-14T15:43:48.381Z,2.55
2018-09-14T15:46:16.493Z,2.00
2018-09-14T15:48:44.629Z,2.30
2018-09-14T15:51:13.895Z,1.90
2018-09-14T15:53:42.367Z,1.87
2018-09-14T15:56:10.544Z,2.75
2018-09-14T15:58:38.704Z,2.37
2018-09-14T16:01:06.878Z,2.40
2018-09-14T16:03:35.158Z,2.08
2018-09-14T16:06:03.288Z,2.50
2018-09-14T16:08:31.526Z,2.10
2018-09-14T16:10:59.866Z,2.67
2018-09-14T16:13:28.054Z,5.37
2018-09-14T16:15:56.268Z,2.37
2018-09-14T16:18:25.260Z,2.20
2018-09-14T16:20:53.477Z,2.30
2018-09-14T16:23:21.772Z,2.17
2018-09-14T16:25:49.852Z,2.00
2018-09-14T16:28:18.075Z,2.60
2018-09-14T16:30:46.683Z,2.58
2018-09-14T16:33:14.984Z,2.33
2018-09-14T16:35:43.677Z,2.42
2018-09-14T16:38:12.456Z,2.47
2018-09-14T16:40:40.677Z,3.12
2018-09-14T16:43:08.936Z,2.80
2018-09-14T16:45:37.238Z,2.50
2018-09-14T16:48:05.374Z,2.70
2018-09-14T16:50:34.201Z,2.67
2018-09-14T16:53:02.924Z,2.10
2018-09-14T16:55:31.124Z,2.70
2018-09-14T16:57:59.281Z,2.72
2018-09-14T17:00:27.487Z,2.10
2018-09-14T17:02:55.754Z,2.50
2018-09-14T17:05:24.220Z,2.60
2018-09-14T17:07:52.345Z,2.65
2018-09-14T17:10:20.491Z,2.37
2018-09-14T17:12:48.800Z,2.35
2018-09-14T17:15:17.007Z,2.75
2018-09-14T17:17:45.176Z,2.50
2018-09-14T17:20:13.692Z,2.70
2018-09-14T17:22:41.930Z,2.40
2018-09-14T17:25:10.272Z,2.58
2018-09-14T17:27:38.393Z,2.17
2018-09-14T17:30:06.563Z,2.30
2018-09-14T17:32:35.722Z,2.37
2018-09-14T17:35:04.003Z,2.30
2018-09-14T17:37:32.315Z,2.37
2018-09-14T17:40:01.416Z,2.75
2018-09-14T17:42:29.595Z,2.65
2018-09-14T17:44:57.863Z,2.80
2018-09-14T17:47:26.091Z,2.67
2018-09-14T17:49:54.404Z,3.40
2018-09-14T17:52:22.632Z,2.67
2018-09-14T17:54:50.796Z,2.80
2018-09-14T17:57:19.077Z,2.83
2018-09-14T17:59:47.416Z,2.70
2018-09-14T18:02:15.634Z,2.75
2018-09-14T18:04:44.000Z,2.85
2018-09-14T18:07:12.133Z,2.72
2018-09-14T18:09:40.302Z,2.75
2018-09-14T18:12:08.533Z,2.90
2018-09-14T18:14:36.644Z,3.10
2018-09-14T18:17:04.882Z,3.00
2018-09-14T18:19:33.552Z,2.90
2018-09-14T18:22:01.862Z,3.02
2018-09-14T18:24:29.967Z,3.17
2018-09-14T18:26:58.699Z,3.20
2018-09-14T18:29:27.817Z,3.22
2018-09-14T18:31:56.276Z,4.08
2018-09-14T18:34:25.165Z,4.00
2018-09-14T18:36:53.389Z,4.05
2018-09-14T18:39:21.728Z,4.42
2018-09-14T18:41:50.150Z,4.78
2018-09-14T18:44:18.413Z,5.47
2018-09-14T18:46:46.814Z,6.35
2018-09-14T18:49:15.044Z,6.75
2018-09-14T18:51:43.454Z,6.62
2018-09-14T18:54:11.921Z,6.17
2018-09-14T18:56:40.150Z,6.35
2018-09-14T18:59:08.348Z,6.12
2018-09-14T19:01:36.705Z,6.65
2018-09-14T19:04:04.859Z,5.70
2018-09-14T19:06:33.245Z,5.30
2018-09-14T19:09:01.686Z,5.92
2018-09-14T19:11:29.929Z,4.83
2018-09-14T19:13:58.154Z,5.12
2018-09-14T19:16:26.576Z,4.60
2018-09-14T19:18:54.733Z,5.20
2018-09-14T19:21:22.985Z,4.80
2018-09-14T19:23:51.229Z,4.58
2018-09-14T19:26:20.245Z,5.53
2018-09-14T19:28:48.513Z,5.15
2018-09-14T19:31:16.969Z,5.53
2018-09-14T19:33:45.392Z,5.58
2018-09-14T19:36:13.715Z,5.40
2018-09-14T19:38:42.053Z,10.10
2018-09-14T19:41:10.917Z,6.15
2018-09-14T19:43:39.206Z,9.23
2018-09-14T19:46:07.716Z,6.40
2018-09-14T19:48:35.953Z,6.65
2018-09-14T19:51:04.108Z,6.10
2018-09-14T19:53:32.238Z,6.37
2018-09-14T19:56:00.516Z,6.08
2018-09-14T19:58:28.691Z,6.72
2018-09-14T20:00:57.144Z,6.40
2018-09-14T20:03:25.288Z,6.37
2018-09-14T20:05:53.565Z,9.53
2018-09-14T20:08:21.713Z,10.00
2018-09-14T20:10:50.109Z,7.83
2018-09-14T20:13:18.377Z,9.85
2018-09-14T20:15:46.690Z,11.35
2018-09-14T20:18:15.040Z,7.97
2018-09-14T20:20:43.695Z,8.53
2018-09-14T20:23:11.853Z,8.28
2018-09-14T20:25:40.041Z,8.83
2018-09-14T20:28:09.548Z,8.80
2018-09-14T20:30:37.781Z,8.38
2018-09-14T20:33:05.884Z,13.72
2018-09-14T20:35:34.098Z,12.45
2018-09-14T20:38:02.386Z,9.73
2018-09-14T20:40:30.727Z,8.80
2018-09-14T20:42:59.028Z,8.83
2018-09-14T20:45:27.257Z,8.48
2018-09-14T20:47:55.468Z,7.60
2018-09-14T20:50:23.873Z,7.65
2018-09-14T20:52:52.825Z,7.37
2018-09-14T20:55:20.952Z,7.80
2018-09-14T20:57:49.169Z,8.03
2018-09-14T21:00:18.429Z,8.58
2018-09-14T21:02:47.359Z,9.90
2018-09-14T21:05:15.569Z,9.68
2018-09-14T21:07:43.688Z,8.80
2018-09-14T21:10:12.059Z,8.33
2018-09-14T21:12:40.232Z,8.13
2018-09-14T21:15:08.484Z,8.48
2018-09-14T21:17:36.601Z,8.60
2018-09-14T21:20:04.981Z,8.73
2018-09-14T21:22:33.333Z,8.83
2018-09-14T21:25:02.361Z,8.35
2018-09-14T21:27:30.483Z,9.10
2018-09-14T21:29:58.581Z,9.10
2018-09-14T21:32:27.301Z,8.93
2018-09-14T21:34:55.413Z,9.05
2018-09-14T21:37:23.718Z,8.98
2018-09-14T21:39:51.933Z,9.40
2018-09-14T21:42:20.391Z,9.78
2018-09-14T21:44:48.660Z,11.00
2018-09-14T21:47:16.964Z,11.15
2018-09-14T21:49:45.719Z,10.05
2018-09-14T21:52:13.822Z,13.55
2018-09-14T21:54:42.036Z,11.60
2018-09-14T21:57:10.171Z,36.28
2018-09-14T21:59:38.558Z,22.42
2018-09-14T22:02:07.148Z,10.72
2018-09-14T22:04:35.320Z,9.75
2018-09-14T22:07:03.756Z,10.05
2018-09-14T22:09:31.946Z,10.20
2018-09-14T22:12:00.178Z,10.78
2018-09-14T22:14:28.568Z,10.20
2018-09-14T22:16:56.734Z,10.70
2018-09-14T22:19:24.878Z,10.00
2018-09-14T22:21:53.105Z,11.45
2018-09-14T22:24:21.354Z,10.55
2018-09-14T22:26:49.468Z,11.33
2018-09-14T22:29:17.868Z,11.30
2018-09-14T22:31:45.989Z,11.83
2018-09-14T22:34:14.250Z,12.45
2018-09-14T22:36:42.445Z,12.25
2018-09-14T22:39:12.432Z,12.33
2018-09-14T22:41:41.052Z,13.30
2018-09-14T22:44:10.056Z,13.00
2018-09-14T22:46:38.215Z,13.45
2018-09-14T22:49:06.332Z,13.58
2018-09-14T22:51:35.119Z,13.30
2018-09-14T22:54:03.232Z,14.03
2018-09-14T22:56:31.364Z,13.15
2018-09-14T22:58:59.451Z,14.87
2018-09-14T23:01:27.575Z,14.07
2018-09-14T23:03:55.736Z,15.03
2018-09-14T23:06:23.948Z,14.38
2018-09-14T23:08:52.047Z,15.18
2018-09-14T23:11:20.195Z,14.95
2018-09-14T23:13:48.296Z,15.58
2018-09-14T23:16:16.483Z,15.83
2018-09-14T23:18:44.711Z,16.55
2018-09-14T23:21:12.974Z,16.15
2018-09-14T23:23:41.447Z,16.10
2018-09-14T23:26:12.796Z,16.35
2018-09-14T23:28:41.004Z,15.90
2018-09-14T23:31:09.106Z,16.07
2018-09-14T23:33:37.968Z,16.00
2018-09-14T23:36:06.099Z,15.48
2018-09-14T23:38:34.199Z,16.12
2018-09-14T23:41:02.352Z,15.43
2018-09-14T23:43:30.476Z,16.65
2018-09-14T23:45:58.683Z,16.05
2018-09-14T23:48:26.803Z,16.05
2018-09-14T23:50:54.999Z,15.80
2018-09-14T23:53:23.195Z,16.23
2018-09-14T23:55:51.309Z,16.87
2018-09-14T23:58:19.619Z,16.07
